createdAt,value
2023-05-15T00:00:17.302Z,2.63
2023-05-15T00:05:19.024Z,2.28
2023-05-15T00:10:20.514Z,2.78
2023-05-15T00:15:21.980Z,2.92
2023-05-15T00:20:23.954Z,2.78
2023-05-15T00:25:25.637Z,3.08
2023-05-15T00:30:28.085Z,2.42
2023-05-15T00:35:29.645Z,2.85
2023-05-15T00:40:33.180Z,2.60
2023-05-15T00:45:35.381Z,3.50
2023-05-15T00:50:38.196Z,3.15
2023-05-15T00:55:42.266Z,3.45
2023-05-15T01:00:46.409Z,4.22
2023-05-15T01:05:48.097Z,3.70
2023-05-15T01:10:51.802Z,4.25
2023-05-15T01:15:54.830Z,4.05
2023-05-15T01:21:05.246Z,3.83
2023-05-15T01:26:34.329Z,4.28
2023-05-15T01:31:40.370Z,4.57
2023-05-15T01:36:53.883Z,3.65
2023-05-15T01:42:11.490Z,4.07
2023-05-15T01:47:15.584Z,4.75
2023-05-15T01:52:32.793Z,3.88
2023-05-15T01:57:35.685Z,4.03
2023-05-15T02:02:37.827Z,4.32
2023-05-15T02:07:42.330Z,4.53
2023-05-15T02:12:44.716Z,4.80
2023-05-15T02:17:47.107Z,3.78
2023-05-15T02:22:48.868Z,4.72
2023-05-15T02:28:00.187Z,4.88
2023-05-15T02:33:23.491Z,4.28
2023-05-15T02:38:31.143Z,3.97
2023-05-15T02:43:33.439Z,3.67
2023-05-15T02:48:39.636Z,3.83
2023-05-15T02:53:42.933Z,4.10
2023-05-15T02:58:44.880Z,5.40
2023-05-15T03:03:47.410Z,5.00
2023-05-15T03:08:49.051Z,5.53
2023-05-15T03:13:51.264Z,6.53
2023-05-15T03:18:52.864Z,6.78
2023-05-15T03:23:54.386Z,6.80
2023-05-15T03:28:58.062Z,7.07
2023-05-15T03:34:00.047Z,8.02
2023-05-15T03:39:01.936Z,6.93
2023-05-15T03:44:04.017Z,7.03
2023-05-15T03:49:05.512Z,8.05
2023-05-15T03:54:09.628Z,7.13
2023-05-15T03:59:11.108Z,8.00
2023-05-15T04:04:12.772Z,8.02
2023-05-15T04:09:14.384Z,8.88
2023-05-15T04:14:15.865Z,7.88
2023-05-15T04:19:17.458Z,8.25
2023-05-15T04:24:19.229Z,7.55
2023-05-15T04:29:21.166Z,9.00
2023-05-15T04:34:22.694Z,8.70
2023-05-15T04:39:24.250Z,8.80
2023-05-15T04:44:25.828Z,9.27
2023-05-15T04:49:27.349Z,9.27
2023-05-15T04:54:29.233Z,9.45
2023-05-15T04:59:30.812Z,9.65
2023-05-15T05:04:32.318Z,10.15
2023-05-15T05:09:34.959Z,7.95
2023-05-15T05:14:36.793Z,9.70
2023-05-15T05:19:38.272Z,9.43
2023-05-15T05:24:39.777Z,9.60
2023-05-15T05:29:41.235Z,9.95
2023-05-15T05:34:42.714Z,8.95
2023-05-15T05:39:44.237Z,9.52
2023-05-15T05:44:45.806Z,8.25
2023-05-15T05:49:48.117Z,7.65
2023-05-15T05:54:49.815Z,7.50
2023-05-15T05:59:51.442Z,7.85
2023-05-15T06:04:53.271Z,7.15
2023-05-15T06:09:54.818Z,8.13
2023-05-15T06:14:56.329Z,6.22
2023-05-15T06:19:57.808Z,7.53
2023-05-15T06:24:59.360Z,6.90
2023-05-15T06:30:00.863Z,7.00
2023-05-15T06:35:02.877Z,6.65
2023-05-15T06:40:05.763Z,7.35
2023-05-15T06:45:08.116Z,7.82
2023-05-15T06:50:10.344Z,7.68
2023-05-15T06:55:12.009Z,7.53
2023-05-15T07:00:14.233Z,8.05
2023-05-15T07:05:16.071Z,6.18
2023-05-15T07:10:17.580Z,6.93
2023-05-15T07:20:20.548Z,5.25
2023-05-15T07:25:22.156Z,5.65
2023-05-15T07:30:23.840Z,4.40
2023-05-15T07:35:25.983Z,5.40
2023-05-15T07:40:27.699Z,5.35
2023-05-15T07:45:29.329Z,4.55
2023-05-15T07:50:31.292Z,5.05
2023-05-15T07:55:32.917Z,4.68
2023-05-15T08:00:34.735Z,4.63
2023-05-15T08:05:36.730Z,4.93
2023-05-15T08:10:39.015Z,4.30
2023-05-15T08:15:40.724Z,4.93
2023-05-15T08:20:42.684Z,4.68
2023-05-15T08:25:44.229Z,5.80
2023-05-15T08:30:45.837Z,5.07
2023-05-15T08:35:47.374Z,5.63
2023-05-15T08:40:50.888Z,5.80
2023-05-15T08:45:54.054Z,4.78
2023-05-15T08:50:59.582Z,5.63
2023-05-15T08:56:01.607Z,5.28
2023-05-15T09:01:03.479Z,6.15
2023-05-15T09:06:05.963Z,5.70
2023-05-15T09:11:08.064Z,5.78
2023-05-15T09:16:09.758Z,5.57
2023-05-15T09:21:28.768Z,5.38
2023-05-15T09:26:30.453Z,5.35
2023-05-15T09:31:31.983Z,5.53
2023-05-15T09:36:33.718Z,5.72
2023-05-15T09:41:35.276Z,5.85
2023-05-15T09:46:37.334Z,5.57
2023-05-15T09:51:39.129Z,6.00
2023-05-15T09:56:43.128Z,5.65
2023-05-15T10:01:46.445Z,5.20
2023-05-15T10:06:48.795Z,5.72
2023-05-15T10:11:55.442Z,5.43
2023-05-15T10:16:57.652Z,5.15
2023-05-15T10:22:00.553Z,4.72
2023-05-15T10:27:04.501Z,4.60
2023-05-15T10:32:06.322Z,4.75
2023-05-15T10:37:08.563Z,5.10
2023-05-15T10:42:11.500Z,5.53
2023-05-15T10:47:13.031Z,5.22
2023-05-15T10:52:16.194Z,5.50
2023-05-15T10:57:17.768Z,5.85
2023-05-15T11:02:30.417Z,5.32
2023-05-15T11:07:31.927Z,5.90
2023-05-15T11:12:59.785Z,5.18
2023-05-15T11:18:03.475Z,5.05
2023-05-15T11:23:05.410Z,5.22
2023-05-15T11:28:20.751Z,6.65
2023-05-15T11:33:22.349Z,4.72
2023-05-15T11:38:25.310Z,5.45
2023-05-15T11:43:26.787Z,5.57
2023-05-15T11:48:33.128Z,5.25
2023-05-15T11:53:35.739Z,5.32
2023-05-15T11:58:38.995Z,5.63
2023-05-15T12:03:40.776Z,5.32
2023-05-15T12:08:42.463Z,5.38
2023-05-15T12:13:43.941Z,5.25
2023-05-15T12:18:47.182Z,4.78
2023-05-15T12:28:57.752Z,4.38
2023-05-15T12:33:59.299Z,5.28
2023-05-15T12:39:06.641Z,5.57
2023-05-15T12:44:16.256Z,4.93
2023-05-15T12:49:24.096Z,5.00
2023-05-15T12:54:26.206Z,4.53
2023-05-15T12:59:28.665Z,4.60
2023-05-15T13:04:33.241Z,3.70
2023-05-15T13:09:35.352Z,3.30
2023-05-15T13:14:36.900Z,2.55
2023-05-15T13:19:38.410Z,2.53
2023-05-15T13:24:40.454Z,2.30
2023-05-15T13:29:43.032Z,2.30
2023-05-15T13:34:44.666Z,2.03
2023-05-15T13:39:47.002Z,2.47
2023-05-15T13:44:48.967Z,2.30
2023-05-15T13:49:51.266Z,2.05
2023-05-15T13:54:54.298Z,1.90
2023-05-15T13:59:56.026Z,1.67
2023-05-15T14:04:57.571Z,1.85
2023-05-15T14:10:00.188Z,2.03
2023-05-15T14:15:01.934Z,2.28
2023-05-15T14:20:05.198Z,2.30
2023-05-15T14:25:07.819Z,2.00
2023-05-15T14:30:09.942Z,1.73
2023-05-15T14:35:11.463Z,2.13
2023-05-15T14:40:13.399Z,2.15
2023-05-15T14:45:15.476Z,2.10
2023-05-15T14:50:17.270Z,2.17
2023-05-15T14:55:22.827Z,2.22
2023-05-15T15:00:24.524Z,2.00
2023-05-15T15:05:26.293Z,1.70
2023-05-15T15:10:28.569Z,1.98
2023-05-15T15:15:34.692Z,2.42
2023-05-15T15:20:36.386Z,3.65
2023-05-15T15:25:38.014Z,2.28
2023-05-15T15:30:39.661Z,2.35
2023-05-15T15:35:41.472Z,2.50
2023-05-15T15:40:43.025Z,2.10
2023-05-15T15:45:44.946Z,3.28
2023-05-15T15:50:46.520Z,2.53
2023-05-15T15:55:48.038Z,2.50
2023-05-15T16:00:49.847Z,2.20
2023-05-15T16:05:51.957Z,2.40
2023-05-15T16:10:54.404Z,2.50
2023-05-15T16:15:56.724Z,2.05
2023-05-15T16:20:59.203Z,2.15
2023-05-15T16:26:02.390Z,2.00
2023-05-15T16:31:04.516Z,1.88
2023-05-15T16:36:06.418Z,2.15
2023-05-15T16:41:08.193Z,2.30
2023-05-15T16:46:10.442Z,2.28
2023-05-15T16:51:12.239Z,2.50
2023-05-15T16:56:14.140Z,2.47
2023-05-15T17:01:16.282Z,2.53
2023-05-15T17:06:18.009Z,2.42
2023-05-15T17:11:20.188Z,2.63
2023-05-15T17:16:21.818Z,2.72
2023-05-15T17:21:23.370Z,2.47
2023-05-15T17:26:26.255Z,2.72
2023-05-15T17:31:29.316Z,2.50
2023-05-15T17:36:31.108Z,2.33
2023-05-15T17:41:32.826Z,2.50
2023-05-15T17:46:34.687Z,2.28
2023-05-15T17:51:36.662Z,1.98
2023-05-15T17:56:38.265Z,2.20
2023-05-15T18:01:39.972Z,2.00
2023-05-15T18:06:42.398Z,1.85
2023-05-15T18:11:44.624Z,2.08
2023-05-15T18:16:46.193Z,1.35
2023-05-15T18:21:48.013Z,1.75
2023-05-15T18:26:49.573Z,1.25
2023-05-15T18:31:51.471Z,2.35
2023-05-15T18:36:53.299Z,1.35
2023-05-15T18:41:55.366Z,1.48
2023-05-15T18:46:57.130Z,1.42
2023-05-15T18:51:58.932Z,1.70
2023-05-15T18:57:00.820Z,1.38
2023-05-15T19:02:02.576Z,2.15
2023-05-15T19:07:04.354Z,2.00
2023-05-15T19:12:06.915Z,2.30
2023-05-15T19:17:08.497Z,1.90
2023-05-15T19:22:10.001Z,2.20
2023-05-15T19:27:11.528Z,1.98
2023-05-15T19:32:13.120Z,1.40
2023-05-15T19:37:14.871Z,1.38
2023-05-15T19:42:16.335Z,1.60
2023-05-15T19:47:17.893Z,1.60
2023-05-15T19:52:19.701Z,1.35
2023-05-15T19:57:21.190Z,1.65
2023-05-15T20:02:23.302Z,1.38
2023-05-15T20:07:25.366Z,1.33
2023-05-15T20:12:26.966Z,1.38
2023-05-15T20:17:28.587Z,1.13
2023-05-15T20:22:30.564Z,0.95
2023-05-15T20:27:32.804Z,1.02
2023-05-15T20:32:34.721Z,0.60
2023-05-15T20:37:40.885Z,0.52
2023-05-15T20:42:42.692Z,0.63
2023-05-15T20:47:44.572Z,0.35
2023-05-15T20:52:46.484Z,0.50
2023-05-15T20:57:49.013Z,0.50
2023-05-15T21:02:51.334Z,0.40
2023-05-15T21:07:53.119Z,0.38
2023-05-15T21:12:55.707Z,0.68
2023-05-15T21:17:58.217Z,1.27
2023-05-15T21:22:59.856Z,0.68
2023-05-15T21:28:01.410Z,0.73
2023-05-15T21:33:03.104Z,0.88
2023-05-15T21:38:04.712Z,0.63
2023-05-15T21:43:06.513Z,0.73
2023-05-15T21:48:08.310Z,0.43
2023-05-15T21:53:10.656Z,0.90
2023-05-15T21:58:12.329Z,0.77
2023-05-15T22:03:14.260Z,0.50
2023-05-15T22:08:16.620Z,0.45
2023-05-15T22:13:18.117Z,0.50
2023-05-15T22:18:19.971Z,0.60
2023-05-15T22:23:21.540Z,0.65
2023-05-15T22:28:23.068Z,0.70
2023-05-15T22:33:24.937Z,0.80
2023-05-15T22:38:26.442Z,0.85
2023-05-15T22:43:27.947Z,0.47
2023-05-15T22:48:29.651Z,0.70
2023-05-15T22:53:32.024Z,0.52
2023-05-15T22:58:33.691Z,0.63
2023-05-15T23:03:35.377Z,0.73
2023-05-15T23:08:36.910Z,0.52
2023-05-15T23:13:38.403Z,0.70
2023-05-15T23:18:40.595Z,0.38
2023-05-15T23:23:42.204Z,0.50
2023-05-15T23:28:43.790Z,0.80
2023-05-15T23:33:45.743Z,0.47
2023-05-15T23:38:47.265Z,0.57
2023-05-15T23:43:50.481Z,0.47
2023-05-15T23:48:52.050Z,0.47
2023-05-15T23:53:53.708Z,0.77
2023-05-15T23:58:55.548Z,0.95
